Pollock, ID

12:44 AM PDT on October 22, 2014 (GMT -0700)
Idaho Cnty AP, Grangeville, I | Change Station
CLOSE
Current Station
Airport
Location: Idaho Cnty AP, Grangeville, I,
Elevation: 3314 ft
Nearby Weather Stations

Elev 3314 ft 45.94 °N, 116.12 °W | Updated 9 minutes ago

Partly Cloudy
Partly Cloudy
37 °F
Feels Like 37 °F
N
0
Wind Variable Wind from North

Today
High -- | Low -- °F
--% Chance of Precip.
Yesterday
High -- | Low -- °F
Precip. -- in
7:10 AM 5:48 PM
Waning Crescent, 3% visible
Pressure 30.07 in
Visibility 10.0 miles
Clouds Clear
Dew Point 34 °F
Humidity 87%
Rainfall 0.00 in
Snow Depth Not available.
UV 0 out of 12
Pollen 1.60 out of 12
Air Quality Not available.
Flu Activity Sporadic
METAR KGIC 220735Z AUTO 00000KT 10SM CLR 03/01 A3007 RMK AO1 T00280009

More Conditions Fewer Conditions

Pressure 30.07 in
Visibility 10.0 miles
Clouds Clear
Dew Point 34 °F
Humidity 87%
Rainfall 0.00 in
Snow Depth Not available.
UV 0 out of 12
Pollen 1.60 out of 12
Air Quality Not available.
Flu Activity Sporadic
METAR KGIC 220735Z AUTO 00000KT 10SM CLR 03/01 A3007 RMK AO1 T00280009

More Conditions Fewer Conditions

10-Day Weather Forecast

Almanac

Astronomy

Oct. 22, 2014 Rise Set
Actual Time 7:10 AM PDT 5:48 PM PDT
Civil Twilight 6:40 AM PDT 6:18 PM PDT
Nautical Twilight 6:06 AM PDT 6:52 PM PDT
Astronomical Twilight 5:32 AM PDT 7:26 PM PDT
Moon 5:53 AM PDT 5:19 PM PDT
Length of Visible Light 11h 37m
Length of Day
10h 37m
Tomorrow will be 2m 59s shorter.
Waning Crescent, 3% of the Moon is Illuminated
Today
Waning Crescent
Oct 23
New
Oct 30
First Quarter
Nov 6
Full
Nov 14
Last Quarter

Today's Extremes

State Highs State Lows

Community

WunderPhotos

Upload Photos

1,763,889 photos uploaded!

Nearby

Air Quality

  Air Quality AQ Index Pollutant
Yesterday Moderate
PM2.5
Tuesday Good
PM2.5
Wednesday Good
PM2.5
Thursday Good
PM2.5

Snow Depth

Station Depth Elevation
Secesh Summit 0 in 6520 ft
Bear Basin 0 in 5350 ft
Squaw Flat 1 in 6240 ft
Long Valley 0 in 4890 ft
Van Wyck 0 in 4920 ft

Earthquake Activity

City Distance Mag. Time & Date
No recent earthquake activity has been reported nearby.
Minimum magnitude displayed is 2.5.

Coastal Water Temperatures

Place Temperature
No Stations Reporting

Nearby Weather Stations